createdAt,value
2018-08-12T00:01:41.059Z,2.47
2018-08-12T00:04:09.215Z,2.40
2018-08-12T00:06:37.341Z,2.40
2018-08-12T00:09:08.190Z,2.50
2018-08-12T00:11:36.331Z,2.60
2018-08-12T00:14:04.529Z,2.27
2018-08-12T00:16:32.701Z,2.70
2018-08-12T00:19:00.790Z,2.20
2018-08-12T00:21:28.970Z,2.30
2018-08-12T00:23:57.109Z,2.27
2018-08-12T00:26:25.250Z,2.43
2018-08-12T00:28:53.566Z,2.37
2018-08-12T00:31:21.704Z,2.23
2018-08-12T00:33:49.835Z,2.50
2018-08-12T00:36:17.999Z,2.40
2018-08-12T00:38:46.146Z,1.93
2018-08-12T00:41:14.278Z,2.43
2018-08-12T00:43:42.407Z,2.20
2018-08-12T00:46:10.544Z,2.10
2018-08-12T00:48:38.674Z,2.90
2018-08-12T00:51:07.227Z,2.50
2018-08-12T00:53:35.379Z,2.33
2018-08-12T00:56:03.504Z,2.40
2018-08-12T00:58:31.673Z,2.47
2018-08-12T01:00:59.826Z,2.23
2018-08-12T01:03:27.995Z,2.40
2018-08-12T01:05:56.113Z,2.13
2018-08-12T01:08:24.232Z,2.20
2018-08-12T01:10:52.363Z,2.60
2018-08-12T01:13:20.514Z,2.47
2018-08-12T01:15:48.667Z,1.97
2018-08-12T01:18:16.834Z,2.83
2018-08-12T01:20:44.983Z,2.50
2018-08-12T01:23:13.121Z,2.30
2018-08-12T01:25:41.271Z,2.47
2018-08-12T01:28:09.397Z,2.30
2018-08-12T01:30:37.527Z,2.10
2018-08-12T01:33:05.685Z,2.13
2018-08-12T01:35:33.931Z,2.30
2018-08-12T01:38:02.119Z,2.60
2018-08-12T01:40:30.232Z,2.23
2018-08-12T01:42:58.384Z,2.70
2018-08-12T01:45:26.519Z,2.30
2018-08-12T01:47:54.691Z,2.50
2018-08-12T01:50:22.808Z,2.60
2018-08-12T01:52:50.992Z,2.40
2018-08-12T01:55:19.146Z,2.20
2018-08-12T01:57:47.277Z,2.00
2018-08-12T02:00:18.052Z,2.70
2018-08-12T02:02:46.452Z,2.27
2018-08-12T02:05:14.656Z,2.33
2018-08-12T02:07:42.866Z,2.20
2018-08-12T02:10:11.031Z,2.60
2018-08-12T02:12:39.729Z,2.50
2018-08-12T02:15:08.933Z,2.27
2018-08-12T02:17:37.131Z,2.20
2018-08-12T02:20:05.822Z,2.50
2018-08-12T02:22:34.053Z,2.50
2018-08-12T02:25:02.197Z,2.30
2018-08-12T02:27:30.319Z,2.37
2018-08-12T02:29:58.505Z,2.40
2018-08-12T02:32:26.657Z,2.50
2018-08-12T02:34:54.787Z,2.40
2018-08-12T02:37:22.911Z,2.30
2018-08-12T02:39:51.054Z,2.10
2018-08-12T02:42:19.184Z,2.60
2018-08-12T02:44:47.427Z,2.50
2018-08-12T02:47:15.583Z,2.73
2018-08-12T02:49:43.720Z,2.27
2018-08-12T02:52:11.888Z,2.57
2018-08-12T02:54:40.045Z,2.50
2018-08-12T02:57:08.195Z,2.60
2018-08-12T02:59:36.335Z,2.67
2018-08-12T03:02:04.684Z,2.40
2018-08-12T03:04:32.815Z,2.70
2018-08-12T03:07:00.935Z,2.70
2018-08-12T03:09:29.083Z,2.60
2018-08-12T03:11:57.225Z,2.80
2018-08-12T03:14:25.346Z,2.70
2018-08-12T03:16:53.473Z,3.07
2018-08-12T03:19:21.599Z,2.47
2018-08-12T03:21:49.731Z,2.70
2018-08-12T03:24:17.846Z,2.20
2018-08-12T03:26:45.964Z,2.60
2018-08-12T03:29:14.098Z,3.00
2018-08-12T03:31:42.253Z,2.80
2018-08-12T03:34:10.381Z,2.63
2018-08-12T03:36:38.536Z,3.07
2018-08-12T03:39:08.536Z,2.80
2018-08-12T03:41:36.663Z,2.90
2018-08-12T03:44:04.915Z,2.73
2018-08-12T03:46:33.058Z,2.70
2018-08-12T03:49:01.180Z,3.00
2018-08-12T03:51:29.327Z,3.10
2018-08-12T03:53:57.457Z,2.77
2018-08-12T03:56:25.586Z,2.97
2018-08-12T03:58:53.728Z,2.60
2018-08-12T04:01:21.879Z,3.00
2018-08-12T04:03:50.008Z,3.20
2018-08-12T04:06:18.139Z,3.10
2018-08-12T04:08:46.281Z,3.03
2018-08-12T04:11:14.415Z,2.87
2018-08-12T04:13:42.540Z,3.30
2018-08-12T04:16:10.676Z,2.93
2018-08-12T04:18:38.796Z,3.03
2018-08-12T04:21:06.983Z,2.70
2018-08-12T04:23:35.095Z,3.07
2018-08-12T04:26:03.465Z,3.00
2018-08-12T04:28:31.576Z,2.83
2018-08-12T04:30:59.696Z,3.30
2018-08-12T04:33:27.815Z,2.90
2018-08-12T04:35:55.961Z,3.00
2018-08-12T04:38:24.091Z,3.13
2018-08-12T04:40:52.341Z,3.03
2018-08-12T04:43:20.467Z,2.90
2018-08-12T04:45:48.639Z,3.10
2018-08-12T04:48:16.777Z,3.10
2018-08-12T04:50:44.925Z,3.17
2018-08-12T04:53:13.084Z,2.80
2018-08-12T04:55:41.207Z,3.30
2018-08-12T04:58:09.352Z,3.50
2018-08-12T05:00:37.487Z,3.13
2018-08-12T05:03:05.695Z,3.00
2018-08-12T05:05:33.839Z,3.27
2018-08-12T05:08:01.959Z,2.90
2018-08-12T05:10:30.091Z,3.13
2018-08-12T05:12:58.219Z,3.00
2018-08-12T05:15:26.355Z,3.10
2018-08-12T05:17:54.612Z,2.90
2018-08-12T05:20:22.742Z,3.30
2018-08-12T05:22:50.899Z,3.17
2018-08-12T05:25:19.067Z,3.20
2018-08-12T05:27:47.197Z,3.07
2018-08-12T05:30:15.347Z,3.20
2018-08-12T05:32:43.508Z,3.37
2018-08-12T05:35:13.186Z,3.30
2018-08-12T05:37:41.504Z,3.20
2018-08-12T05:40:11.012Z,3.60
2018-08-12T05:42:39.139Z,3.47
2018-08-12T05:45:08.495Z,3.40
2018-08-12T05:47:36.869Z,3.40
2018-08-12T05:50:06.763Z,3.50
2018-08-12T05:52:34.948Z,3.30
2018-08-12T05:55:03.251Z,3.30
2018-08-12T05:57:31.408Z,3.43
2018-08-12T05:59:59.530Z,3.33
2018-08-12T06:02:27.643Z,4.00
2018-08-12T06:04:55.795Z,3.73
2018-08-12T06:07:23.927Z,3.60
2018-08-12T06:09:52.063Z,3.60
2018-08-12T06:12:20.214Z,3.30
2018-08-12T06:14:48.389Z,3.93
2018-08-12T06:17:16.542Z,4.07
2018-08-12T06:19:44.651Z,3.40
2018-08-12T06:22:12.808Z,3.50
2018-08-12T06:24:40.927Z,3.93
2018-08-12T06:27:09.179Z,3.90
2018-08-12T06:29:37.303Z,3.93
2018-08-12T06:32:05.436Z,4.20
2018-08-12T06:34:33.569Z,3.80
2018-08-12T06:37:01.903Z,4.00
2018-08-12T06:39:30.039Z,4.03
2018-08-12T06:41:58.175Z,3.90
2018-08-12T06:44:26.310Z,3.70
2018-08-12T06:46:54.447Z,3.67
2018-08-12T06:49:22.574Z,3.87
2018-08-12T06:51:50.693Z,3.27
2018-08-12T06:54:18.850Z,3.97
2018-08-12T06:56:46.992Z,3.40
2018-08-12T06:59:15.114Z,3.73
2018-08-12T07:01:43.354Z,3.70
2018-08-12T07:04:11.467Z,3.67
2018-08-12T07:06:39.598Z,3.17
2018-08-12T07:09:08.499Z,3.23
2018-08-12T07:11:36.723Z,3.70
2018-08-12T07:14:06.209Z,3.13
2018-08-12T07:16:34.692Z,3.67
2018-08-12T07:19:02.850Z,2.97
2018-08-12T07:21:30.995Z,3.40
2018-08-12T07:23:59.112Z,3.50
2018-08-12T07:26:27.240Z,3.00
2018-08-12T07:28:55.451Z,3.40
2018-08-12T07:31:23.595Z,3.00
2018-08-12T07:33:51.719Z,3.07
2018-08-12T07:36:19.843Z,2.70
2018-08-12T07:38:48.016Z,3.57
2018-08-12T07:41:16.121Z,3.13
2018-08-12T07:43:44.269Z,2.87
2018-08-12T07:46:12.391Z,3.67
2018-08-12T07:48:40.565Z,2.80
2018-08-12T07:51:08.684Z,2.97
2018-08-12T07:53:36.823Z,2.90
2018-08-12T07:56:05.416Z,2.97
2018-08-12T07:58:33.564Z,2.23
2018-08-12T08:01:01.698Z,2.33
2018-08-12T08:03:29.966Z,2.80
2018-08-12T08:05:58.095Z,2.77
2018-08-12T08:08:26.220Z,2.60
2018-08-12T08:10:54.350Z,2.70
2018-08-12T08:13:22.484Z,2.47
2018-08-12T08:15:50.608Z,2.70
2018-08-12T08:18:18.747Z,2.63
2018-08-12T08:20:46.881Z,2.50
2018-08-12T08:23:15.013Z,2.63
2018-08-12T08:25:43.248Z,2.00
2018-08-12T08:28:11.426Z,2.00
2018-08-12T08:30:39.577Z,2.23
2018-08-12T08:33:07.712Z,2.37
2018-08-12T08:35:35.836Z,2.10
2018-08-12T08:38:04.072Z,2.30
2018-08-12T08:40:32.170Z,2.27
2018-08-12T08:43:00.312Z,2.00
2018-08-12T08:45:28.430Z,2.00
2018-08-12T08:47:56.570Z,2.03
2018-08-12T08:50:24.716Z,2.40
2018-08-12T08:52:52.839Z,1.80
2018-08-12T08:55:20.960Z,2.03
2018-08-12T08:57:49.143Z,2.00
2018-08-12T09:00:18.890Z,1.80
2018-08-12T09:02:49.469Z,2.17
2018-08-12T09:05:18.131Z,2.00
2018-08-12T09:07:46.503Z,2.07
2018-08-12T09:10:16.921Z,2.07
2018-08-12T09:12:45.084Z,2.20
2018-08-12T09:15:15.335Z,1.90
2018-08-12T09:17:44.319Z,2.30
2018-08-12T09:20:14.239Z,1.73
2018-08-12T09:22:42.503Z,1.50
2018-08-12T09:25:11.448Z,2.10
2018-08-12T09:27:39.615Z,2.10
2018-08-12T09:30:09.763Z,1.97
2018-08-12T09:32:38.195Z,1.83
2018-08-12T09:35:06.657Z,1.90
2018-08-12T09:37:34.927Z,1.60
2018-08-12T09:40:03.085Z,1.53
2018-08-12T09:42:31.579Z,1.80
2018-08-12T09:44:59.736Z,1.60
2018-08-12T09:47:27.880Z,1.73
2018-08-12T09:49:56.011Z,1.53
2018-08-12T09:52:24.143Z,1.60
2018-08-12T09:54:52.289Z,1.67
2018-08-12T09:57:20.496Z,1.50
2018-08-12T09:59:48.647Z,1.87
2018-08-12T10:02:16.769Z,1.90
2018-08-12T10:04:44.928Z,1.60
2018-08-12T10:07:13.047Z,1.63
2018-08-12T10:09:41.212Z,1.63
2018-08-12T10:12:09.516Z,1.60
2018-08-12T10:14:37.831Z,1.73
2018-08-12T10:17:06.258Z,1.83
2018-08-12T10:19:34.523Z,2.00
2018-08-12T10:22:02.772Z,1.53
2018-08-12T10:24:30.915Z,1.67
2018-08-12T10:26:59.035Z,1.80
2018-08-12T10:29:27.240Z,1.63
2018-08-12T10:31:55.444Z,1.50
2018-08-12T10:34:23.558Z,1.50
2018-08-12T10:36:51.733Z,1.57
2018-08-12T10:39:19.906Z,1.50
2018-08-12T10:41:48.083Z,1.70
2018-08-12T10:44:16.206Z,1.97
2018-08-12T10:46:44.345Z,1.60
2018-08-12T10:49:12.493Z,2.10
2018-08-12T10:51:40.610Z,1.70
2018-08-12T10:54:08.755Z,1.80
2018-08-12T10:56:36.883Z,1.70
2018-08-12T10:59:05.087Z,1.80
2018-08-12T11:01:33.196Z,1.80
2018-08-12T11:04:01.343Z,1.50
2018-08-12T11:06:29.462Z,1.63
2018-08-12T11:08:57.584Z,1.80
2018-08-12T11:11:25.931Z,1.87
2018-08-12T11:13:54.059Z,1.77
2018-08-12T11:16:22.187Z,1.80
2018-08-12T11:18:50.336Z,1.90
2018-08-12T11:21:18.458Z,2.00
2018-08-12T11:23:46.667Z,2.20
2018-08-12T11:26:14.801Z,2.40
2018-08-12T11:28:42.990Z,1.70
2018-08-12T11:31:11.080Z,1.90
2018-08-12T11:33:39.216Z,2.03
2018-08-12T11:36:07.418Z,1.90
2018-08-12T11:38:35.548Z,1.70
2018-08-12T11:41:03.689Z,1.90
2018-08-12T11:43:31.801Z,1.90
2018-08-12T11:45:59.935Z,1.70
2018-08-12T11:48:28.183Z,1.67
2018-08-12T11:50:56.311Z,2.00
2018-08-12T11:53:24.451Z,2.03
2018-08-12T11:55:52.591Z,1.90
2018-08-12T11:58:20.727Z,1.77
2018-08-12T12:00:48.852Z,1.57
2018-08-12T12:03:16.975Z,1.70
2018-08-12T12:05:45.130Z,1.87
2018-08-12T12:08:13.255Z,1.90
2018-08-12T12:10:41.395Z,1.77
2018-08-12T12:13:09.618Z,1.83
2018-08-12T12:15:37.831Z,1.97
2018-08-12T12:18:06.002Z,1.77
2018-08-12T12:20:34.168Z,1.70
2018-08-12T12:23:02.263Z,1.70
2018-08-12T12:25:30.507Z,1.77
2018-08-12T12:27:58.648Z,1.70
2018-08-12T12:30:26.786Z,1.50
2018-08-12T12:32:54.916Z,1.90
2018-08-12T12:35:23.127Z,1.97
2018-08-12T12:37:51.255Z,1.87
2018-08-12T12:40:19.888Z,1.43
2018-08-12T12:42:48.427Z,1.80
2018-08-12T12:45:17.044Z,1.60
2018-08-12T12:47:45.427Z,1.80
2018-08-12T12:50:16.265Z,1.70
2018-08-12T12:52:44.532Z,1.70
2018-08-12T12:55:12.651Z,1.77
2018-08-12T12:57:40.991Z,1.87
2018-08-12T13:00:11.419Z,1.97
2018-08-12T13:02:39.849Z,1.90
2018-08-12T13:05:10.941Z,2.00
2018-08-12T13:07:39.067Z,2.00
2018-08-12T13:10:08.319Z,2.07
2018-08-12T13:12:36.486Z,2.07
2018-08-12T13:15:05.791Z,1.77
2018-08-12T13:17:33.936Z,2.30
2018-08-12T13:20:02.063Z,1.93
2018-08-12T13:22:30.185Z,2.10
2018-08-12T13:24:58.393Z,1.80
2018-08-12T13:27:26.468Z,2.10
2018-08-12T13:29:54.600Z,2.30
2018-08-12T13:32:22.807Z,1.93
2018-08-12T13:34:50.952Z,2.20
2018-08-12T13:37:19.111Z,2.27
2018-08-12T13:39:47.256Z,2.20
2018-08-12T13:42:16.218Z,2.23
2018-08-12T13:44:44.327Z,2.30
2018-08-12T13:47:12.499Z,2.30
2018-08-12T13:49:40.625Z,2.10
2018-08-12T13:52:08.767Z,2.20
2018-08-12T13:54:36.939Z,2.50
2018-08-12T13:57:05.191Z,2.30
2018-08-12T13:59:33.343Z,2.47
2018-08-12T14:02:01.478Z,2.20
2018-08-12T14:04:29.619Z,2.27
2018-08-12T14:06:57.798Z,2.00
2018-08-12T14:09:25.880Z,2.30
2018-08-12T14:11:54.008Z,2.10
2018-08-12T14:14:22.139Z,2.00
2018-08-12T14:16:50.283Z,2.20
2018-08-12T14:19:19.382Z,2.13
2018-08-12T14:21:48.530Z,2.45
2018-08-12T14:24:17.431Z,2.10
2018-08-12T14:26:46.646Z,2.02
2018-08-12T14:29:14.771Z,2.00
2018-08-12T14:31:43.975Z,2.17
2018-08-12T14:34:12.688Z,2.37
2018-08-12T14:36:42.189Z,2.02
2018-08-12T14:39:11.569Z,2.47
2018-08-12T14:41:39.833Z,2.08
2018-08-12T14:44:07.964Z,1.97
2018-08-12T14:46:36.345Z,2.20
2018-08-12T14:49:04.522Z,2.10
2018-08-12T14:51:32.723Z,1.93
2018-08-12T14:54:01.863Z,2.10
2018-08-12T14:56:30.742Z,2.00
2018-08-12T14:58:59.770Z,2.13
2018-08-12T15:01:27.952Z,1.90
2018-08-12T15:03:56.088Z,1.63
2018-08-12T15:06:24.233Z,1.97
2018-08-12T15:08:52.394Z,2.40
2018-08-12T15:11:20.569Z,1.60
2018-08-12T15:13:48.728Z,1.60
2018-08-12T15:16:16.890Z,1.47
2018-08-12T15:18:45.068Z,1.70
2018-08-12T15:21:13.211Z,1.63
2018-08-12T15:23:41.344Z,1.63
2018-08-12T15:26:09.483Z,1.50
2018-08-12T15:28:37.647Z,1.60
2018-08-12T15:31:05.749Z,1.63
2018-08-12T15:33:33.855Z,1.40
2018-08-12T15:36:02.016Z,1.57
2018-08-12T15:38:30.176Z,1.30
2018-08-12T15:40:58.311Z,1.60
2018-08-12T15:43:26.445Z,1.60
2018-08-12T15:45:54.563Z,1.60
2018-08-12T15:48:22.706Z,1.60
2018-08-12T15:50:50.849Z,1.50
2018-08-12T15:53:18.979Z,1.50
2018-08-12T15:55:47.112Z,1.50
2018-08-12T15:58:15.279Z,1.57
2018-08-12T16:00:43.415Z,1.40
2018-08-12T16:03:11.559Z,1.50
2018-08-12T16:05:39.692Z,1.47
2018-08-12T16:08:07.835Z,1.50
2018-08-12T16:10:35.978Z,1.70
2018-08-12T16:13:04.127Z,1.43
2018-08-12T16:15:32.321Z,1.60
2018-08-12T16:18:00.485Z,1.60
2018-08-12T16:20:28.614Z,1.83
2018-08-12T16:22:56.720Z,2.03
2018-08-12T16:25:24.912Z,1.90
2018-08-12T16:27:53.388Z,1.60
2018-08-12T16:30:21.528Z,1.70
2018-08-12T16:32:49.667Z,1.53
2018-08-12T16:35:18.232Z,1.60
2018-08-12T16:37:46.784Z,1.90
2018-08-12T16:40:17.733Z,1.60
2018-08-12T16:42:46.328Z,2.00
2018-08-12T16:45:15.219Z,1.57
2018-08-12T16:47:43.907Z,1.73
2018-08-12T16:50:12.388Z,1.50
2018-08-12T16:52:40.953Z,1.60
2018-08-12T16:55:12.717Z,1.53
2018-08-12T16:57:40.873Z,1.60
2018-08-12T17:00:12.039Z,1.80
2018-08-12T17:02:40.271Z,1.60
2018-08-12T17:05:10.926Z,1.63
2018-08-12T17:07:39.065Z,1.70
2018-08-12T17:10:08.101Z,1.73
2018-08-12T17:12:36.239Z,1.67
2018-08-12T17:15:05.307Z,1.80
2018-08-12T17:17:33.662Z,2.00
2018-08-12T17:20:01.783Z,1.97
2018-08-12T17:22:29.921Z,1.90
2018-08-12T17:24:58.331Z,2.30
2018-08-12T17:27:26.493Z,1.63
2018-08-12T17:29:54.641Z,1.93
2018-08-12T17:32:22.807Z,2.07
2018-08-12T17:34:50.931Z,2.00
2018-08-12T17:37:19.110Z,2.03
2018-08-12T17:39:47.262Z,2.03
2018-08-12T17:42:15.463Z,2.43
2018-08-12T17:44:50.610Z,2.20
2018-08-12T17:47:18.932Z,2.47
2018-08-12T17:49:47.060Z,3.27
2018-08-12T17:52:15.199Z,3.47
2018-08-12T17:54:43.327Z,2.57
2018-08-12T17:57:11.543Z,2.70
2018-08-12T17:59:39.655Z,2.70
2018-08-12T18:02:07.797Z,2.73
2018-08-12T18:04:35.935Z,2.30
2018-08-12T18:07:04.351Z,2.70
2018-08-12T18:09:32.522Z,2.57
2018-08-12T18:12:00.706Z,2.80
2018-08-12T18:14:28.878Z,1.90
2018-08-12T18:16:56.995Z,2.03
2018-08-12T18:19:25.140Z,1.40
2018-08-12T18:21:53.297Z,1.50
2018-08-12T18:24:21.464Z,1.90
2018-08-12T18:26:49.584Z,1.90
2018-08-12T18:29:17.727Z,1.80
2018-08-12T18:31:45.871Z,1.90
2018-08-12T18:34:13.988Z,2.20
2018-08-12T18:36:42.121Z,2.23
2018-08-12T18:39:11.924Z,2.30
2018-08-12T18:41:40.232Z,2.50
2018-08-12T18:44:09.035Z,2.77
2018-08-12T18:46:37.211Z,2.57
2018-08-12T18:49:05.699Z,2.60
2018-08-12T18:51:34.052Z,2.60
2018-08-12T18:54:02.255Z,2.90
2018-08-12T18:56:30.410Z,2.80
2018-08-12T18:58:58.531Z,3.90
2018-08-12T19:01:26.857Z,3.93
2018-08-12T19:03:55.288Z,3.20
2018-08-12T19:06:23.605Z,2.90
2018-08-12T19:08:51.779Z,2.80
2018-08-12T19:11:19.904Z,2.30
2018-08-12T19:13:48.064Z,2.60
2018-08-12T19:16:16.220Z,2.80
2018-08-12T19:18:44.413Z,2.33
2018-08-12T19:21:12.542Z,2.70
2018-08-12T19:23:40.696Z,2.90
2018-08-12T19:26:08.828Z,2.47
2018-08-12T19:28:36.995Z,2.90
2018-08-12T19:31:05.172Z,2.43
2018-08-12T19:33:33.339Z,2.43
2018-08-12T19:36:01.465Z,2.63
2018-08-12T19:38:29.622Z,2.93
2018-08-12T19:40:57.767Z,3.10
2018-08-12T19:43:25.902Z,3.30
2018-08-12T19:45:54.049Z,3.00
2018-08-12T19:48:22.215Z,3.00
2018-08-12T19:50:50.348Z,2.90
2018-08-12T19:53:18.513Z,2.00
2018-08-12T19:55:46.624Z,2.80
2018-08-12T19:58:14.811Z,2.70
2018-08-12T20:00:42.983Z,2.60
2018-08-12T20:03:11.217Z,2.60
2018-08-12T20:05:39.361Z,2.63
2018-08-12T20:08:07.502Z,2.30
2018-08-12T20:10:35.646Z,2.70
2018-08-12T20:13:03.790Z,2.30
2018-08-12T20:15:31.943Z,2.50
2018-08-12T20:18:00.068Z,2.60
2018-08-12T20:20:28.195Z,2.77
2018-08-12T20:22:56.323Z,2.90
2018-08-12T20:25:24.517Z,3.10
2018-08-12T20:27:52.671Z,2.97
2018-08-12T20:30:20.768Z,2.60
2018-08-12T20:32:48.895Z,3.00
2018-08-12T20:35:17.156Z,2.80
2018-08-12T20:37:45.295Z,3.00
2018-08-12T20:40:13.745Z,2.80
2018-08-12T20:42:41.880Z,3.07
2018-08-12T20:45:10.020Z,2.70
2018-08-12T20:47:38.180Z,2.60
2018-08-12T20:50:07.111Z,2.97
2018-08-12T20:52:35.480Z,3.03
2018-08-12T20:55:03.971Z,2.63
2018-08-12T20:57:32.116Z,2.43
2018-08-12T21:00:00.271Z,2.43
2018-08-12T21:02:28.396Z,2.30
2018-08-12T21:04:56.523Z,2.67
2018-08-12T21:07:24.699Z,2.90
2018-08-12T21:09:52.964Z,2.30
2018-08-12T21:12:21.083Z,2.70
2018-08-12T21:14:49.356Z,2.10
2018-08-12T21:17:17.498Z,2.33
2018-08-12T21:19:45.656Z,2.23
2018-08-12T21:22:13.809Z,2.23
2018-08-12T21:24:41.964Z,2.30
2018-08-12T21:27:10.140Z,2.27
2018-08-12T21:29:38.324Z,2.37
2018-08-12T21:32:06.480Z,2.57
2018-08-12T21:34:34.663Z,2.83
2018-08-12T21:37:02.900Z,2.40
2018-08-12T21:39:31.082Z,2.50
2018-08-12T21:41:59.195Z,2.40
2018-08-12T21:44:27.360Z,2.33
2018-08-12T21:46:55.531Z,2.33
2018-08-12T21:49:23.693Z,2.50
2018-08-12T21:51:51.866Z,2.20
2018-08-12T21:54:20.009Z,2.33
2018-08-12T21:56:48.198Z,2.40
2018-08-12T21:59:16.364Z,2.30
2018-08-12T22:01:45.057Z,2.10
2018-08-12T22:04:13.225Z,2.40
2018-08-12T22:06:41.497Z,2.03
2018-08-12T22:09:10.611Z,2.20
2018-08-12T22:11:38.891Z,2.30
2018-08-12T22:14:07.073Z,2.13
2018-08-12T22:16:35.240Z,2.27
2018-08-12T22:19:03.414Z,2.60
2018-08-12T22:21:31.618Z,2.53
2018-08-12T22:23:59.775Z,2.60
2018-08-12T22:26:27.963Z,2.13
2018-08-12T22:28:56.131Z,2.30
2018-08-12T22:31:24.320Z,2.40
2018-08-12T22:33:52.580Z,2.33
2018-08-12T22:36:20.836Z,2.37
2018-08-12T22:38:48.992Z,2.53
2018-08-12T22:41:17.183Z,2.30
2018-08-12T22:43:45.335Z,2.27
2018-08-12T22:46:13.528Z,2.10
2018-08-12T22:48:41.687Z,2.43
2018-08-12T22:51:09.900Z,1.90
2018-08-12T22:53:38.096Z,2.37
2018-08-12T22:56:06.319Z,2.20
2018-08-12T22:58:34.456Z,2.00
2018-08-12T23:01:03.407Z,2.10
2018-08-12T23:03:31.895Z,1.97
2018-08-12T23:06:00.054Z,2.20
2018-08-12T23:08:28.225Z,1.93
2018-08-12T23:10:56.398Z,2.20
2018-08-12T23:13:24.552Z,2.27
2018-08-12T23:16:14.251Z,2.57
2018-08-12T23:18:42.384Z,1.83
2018-08-12T23:21:12.775Z,2.30
2018-08-12T23:23:42.437Z,2.20
2018-08-12T23:26:12.263Z,2.50
2018-08-12T23:28:40.435Z,1.80
2018-08-12T23:31:08.927Z,1.90
2018-08-12T23:33:37.714Z,2.13
2018-08-12T23:36:06.120Z,2.13
2018-08-12T23:38:34.607Z,1.80
2018-08-12T23:41:03.144Z,2.10
2018-08-12T23:43:31.284Z,2.03
2018-08-12T23:45:59.475Z,2.23
2018-08-12T23:48:28.434Z,2.23
2018-08-12T23:50:56.672Z,2.13
2018-08-12T23:53:24.881Z,2.40
2018-08-12T23:55:53.136Z,1.93
2018-08-12T23:58:21.349Z,2.20
